Brainerd Lakes Regional Airport
KBRD : now visible

Airfield :











YOU CAN JOIN US ON...

 
LOGIN :

Register | Disclaimer

   EN    FR    IT 

 









Legend :    VFR   Marginal VFR   IFR   Intensive IFR   Very Intensive IFR
Visi :
Ceiling :
>= 8 km
>= 3000ft
5 to 8 km
1000 to 3000 ft
1500m to 5 km
500 to 1000 ft
800 to 1500m
200 to 500 ft
< 800m
< 200 ft
Symbols :   Thunderstorms  Fog  Heavy snow  Heavy precipitations  Wind > 20 kt






- Airport Elevation : 1232 ft


KBRD - Brainerd Lakes Regional

CURRENT METAR :
  • 291053Z AUTO 00000KT 10SM CLR 11/09 A3014 RMK AO2 SLP208 T01060089

EXPIRED METARs :
  • 290953Z AUTO 00000KT 10SM CLR 11/09 A3013 RMK AO2 SLP205 T01110094
  • 290931Z AUTO 05003KT 3SM BR FEW001 10/09 A3013 RMK AO2 T01000089
  • 290929Z AUTO 05003KT 1 3/4SM BR FEW001 10/09 A3013 RMK AO2 VIS 3/4V5 T01000094
  • 290915Z AUTO 00000KT 1/4SM FG VV001 11/09 A3013 RMK AO2 T01060094
  • 290853Z AUTO 00000KT 9SM CLR 09/08 A3014 RMK AO2 SLP209 T00940083 58005

TAF KBRD
Valid from the 29 at 12:00 until the 30 at 12:00 UTC


291124Z 2912/3012 VRB03KT P6SM FEW120
FM291500 15009G16KT P6SM SCT120
FM292100 15013G25KT P6SM VCSH BKN130
FM300200 17014G29KT P6SM SCT250 WS020/19045KT
FM300800 22010G21KT P6SM VCTS BKN200CB
KZMP FIR / North America



MET'MAP, your aeronautical weather chart ! - Copyright ORBIFLY December 2007 - Disclaimer

ORBIFLY MET'MAP TEAM :

Programming & Development : Alexandra Zaïnal
Original concept : Baudouin d'Aumeries
Technical & hardware support : Manuel Goepfert
Assistance : Marc-Olivier Méhu




SOURCES & CREDITS :

   NOAA       Earth
Advisory